createdAt,value
2023-09-08T00:01:06.121Z,11.00
2023-09-08T00:06:09.714Z,9.35
2023-09-08T00:11:13.245Z,9.48
2023-09-08T00:16:18.437Z,8.57
2023-09-08T00:21:22.025Z,10.75
2023-09-08T00:26:25.583Z,10.70
2023-09-08T00:31:30.579Z,11.32
2023-09-08T00:36:34.657Z,11.02
2023-09-08T00:41:38.291Z,10.32
2023-09-08T00:46:43.328Z,10.82
2023-09-08T00:51:47.116Z,12.02
2023-09-08T00:56:54.948Z,9.95
2023-09-08T01:02:00.077Z,11.68
2023-09-08T01:07:04.782Z,11.63
2023-09-08T01:12:09.820Z,10.70
2023-09-08T01:17:14.784Z,11.18
2023-09-08T01:22:53.302Z,12.48
2023-09-08T01:28:02.406Z,11.32
2023-09-08T01:33:07.015Z,12.95
2023-09-08T01:38:10.717Z,11.15
2023-09-08T01:43:15.944Z,11.82
2023-09-08T01:48:19.482Z,11.93
2023-09-08T01:53:23.036Z,12.20
2023-09-08T01:58:27.948Z,15.15
2023-09-08T02:03:32.106Z,15.43
2023-09-08T02:08:37.508Z,14.93
2023-09-08T02:13:45.615Z,12.38
2023-09-08T02:18:49.237Z,14.35
2023-09-08T02:23:52.879Z,13.80
2023-09-08T02:28:57.883Z,14.68
2023-09-08T02:34:02.602Z,15.10
2023-09-08T02:39:08.221Z,14.38
2023-09-08T02:44:13.492Z,12.82
2023-09-08T02:49:17.091Z,14.68
2023-09-08T02:54:21.411Z,13.82
2023-09-08T02:59:26.479Z,14.55
2023-09-08T03:04:30.067Z,13.90
2023-09-08T03:09:36.145Z,13.65
2023-09-08T03:14:41.077Z,12.65
2023-09-08T03:19:47.601Z,14.63
2023-09-08T03:24:51.416Z,14.60
2023-09-08T03:29:56.297Z,15.52
2023-09-08T03:35:00.460Z,12.02
2023-09-08T03:40:06.718Z,14.40
2023-09-08T03:45:12.425Z,14.88
2023-09-08T03:50:16.344Z,15.68
2023-09-08T03:55:20.119Z,18.23
2023-09-08T04:00:25.114Z,18.35
2023-09-08T04:05:28.980Z,16.77
2023-09-08T04:10:32.698Z,17.00
2023-09-08T04:15:37.772Z,15.15
2023-09-08T04:20:41.782Z,16.52
2023-09-08T04:25:45.332Z,19.52
2023-09-08T04:30:50.484Z,17.73
2023-09-08T04:35:54.556Z,16.05
2023-09-08T04:40:58.397Z,19.45
2023-09-08T04:46:04.850Z,17.92
2023-09-08T04:51:08.928Z,16.02
2023-09-08T04:56:12.605Z,20.23
2023-09-08T05:01:17.678Z,19.05
2023-09-08T05:06:21.489Z,20.70
2023-09-08T05:11:25.315Z,21.77
2023-09-08T05:16:40.462Z,21.00
2023-09-08T05:21:47.612Z,21.80
2023-09-08T05:26:52.142Z,20.58
2023-09-08T05:31:57.185Z,17.52
2023-09-08T05:37:01.301Z,22.45
2023-09-08T05:42:05.364Z,25.65
2023-09-08T05:47:10.472Z,21.38
2023-09-08T05:52:14.211Z,23.20
2023-09-08T05:57:20.955Z,19.80
2023-09-08T06:02:26.162Z,22.60
2023-09-08T06:07:32.960Z,22.05
2023-09-08T06:12:36.779Z,22.00
2023-09-08T06:17:41.966Z,22.25
2023-09-08T06:22:46.069Z,21.70
2023-09-08T06:27:49.796Z,21.50
2023-09-08T06:32:55.482Z,22.58
2023-09-08T06:38:00.136Z,22.83
2023-09-08T06:43:04.395Z,22.02
2023-09-08T06:48:31.487Z,23.00
2023-09-08T06:53:35.264Z,23.63
2023-09-08T06:58:39.050Z,24.33
2023-09-08T07:03:44.388Z,20.48
2023-09-08T07:08:50.733Z,22.55
2023-09-08T07:13:55.645Z,22.80
2023-09-08T07:19:02.059Z,20.33
2023-09-08T07:24:07.838Z,20.00
2023-09-08T07:29:11.626Z,22.65
2023-09-08T07:34:16.714Z,21.10
2023-09-08T07:39:20.494Z,20.10
2023-09-08T07:44:24.289Z,19.45
2023-09-08T07:49:29.371Z,18.98
2023-09-08T07:54:33.018Z,17.77
2023-09-08T07:59:38.029Z,18.05
2023-09-08T08:04:43.254Z,19.13
2023-09-08T08:09:46.880Z,16.40
2023-09-08T08:14:50.550Z,15.20
2023-09-08T08:19:55.964Z,14.30
2023-09-08T08:24:59.535Z,14.18
2023-09-08T08:30:04.855Z,13.50
2023-09-08T08:35:10.542Z,12.15
2023-09-08T08:40:14.744Z,12.63
2023-09-08T08:45:20.923Z,13.43
2023-09-08T08:50:27.996Z,13.90
2023-09-08T08:55:32.855Z,11.43
2023-09-08T09:00:38.850Z,11.85
2023-09-08T09:05:47.949Z,13.68
2023-09-08T09:10:52.985Z,14.32
2023-09-08T09:16:01.439Z,16.95
2023-09-08T09:21:06.610Z,16.45
2023-09-08T09:26:10.379Z,15.18
2023-09-08T09:31:14.136Z,17.25
2023-09-08T09:36:23.439Z,18.38
2023-09-08T09:41:27.137Z,16.40
2023-09-08T09:46:31.120Z,15.45
2023-09-08T09:51:42.955Z,16.55
2023-09-08T09:56:49.653Z,16.10
2023-09-08T10:01:55.499Z,13.18
2023-09-08T10:07:01.190Z,12.77
2023-09-08T10:12:07.096Z,11.98
2023-09-08T10:17:14.498Z,11.23
2023-09-08T10:22:24.404Z,12.18
2023-09-08T10:27:28.338Z,11.73
2023-09-08T10:32:33.176Z,10.35
2023-09-08T10:37:42.596Z,9.23
2023-09-08T10:42:46.238Z,9.63
2023-09-08T10:47:59.544Z,8.50
2023-09-08T10:53:09.290Z,8.85
2023-09-08T10:58:13.176Z,8.30
2023-09-08T11:03:28.148Z,6.70
2023-09-08T11:08:35.035Z,7.18
2023-09-08T11:13:40.905Z,7.82
2023-09-08T11:18:44.706Z,7.13
2023-09-08T11:23:50.030Z,6.70
2023-09-08T11:28:54.696Z,6.25
2023-09-08T11:34:00.673Z,5.78
2023-09-08T11:39:08.796Z,6.53
2023-09-08T11:44:17.760Z,6.20
2023-09-08T11:49:23.916Z,6.32
2023-09-08T11:54:29.979Z,7.00
2023-09-08T11:59:35.736Z,6.10
2023-09-08T12:04:43.130Z,6.63
2023-09-08T12:09:48.571Z,7.50
2023-09-08T12:14:52.147Z,6.18
2023-09-08T12:19:55.661Z,6.20
2023-09-08T12:25:03.134Z,8.57
2023-09-08T12:30:09.599Z,6.85
2023-09-08T12:35:13.203Z,5.78
2023-09-08T12:40:18.962Z,5.45
2023-09-08T12:45:23.931Z,5.85
2023-09-08T12:50:27.592Z,5.75
2023-09-08T12:55:32.502Z,5.43
2023-09-08T13:00:36.171Z,6.45
2023-09-08T13:05:40.886Z,5.43
2023-09-08T13:10:45.908Z,5.63
2023-09-08T13:15:50.795Z,6.18
2023-09-08T13:20:54.409Z,6.10
2023-09-08T13:25:59.383Z,5.25
2023-09-08T13:31:02.948Z,5.22
2023-09-08T13:36:07.210Z,5.68
2023-09-08T13:41:13.429Z,5.20
2023-09-08T13:46:16.985Z,5.38
2023-09-08T13:51:22.073Z,5.80
2023-09-08T13:56:27.620Z,5.15
2023-09-08T14:01:34.438Z,5.30
2023-09-08T14:16:52.642Z,5.57
2023-09-08T14:21:56.216Z,5.80
2023-09-08T14:27:01.117Z,5.35
2023-09-08T14:32:04.998Z,6.00
2023-09-08T14:37:11.320Z,5.78
2023-09-08T14:42:17.119Z,5.75
2023-09-08T14:47:20.675Z,5.97
2023-09-08T14:52:24.806Z,6.57
2023-09-08T14:57:29.790Z,5.53
2023-09-08T15:02:33.616Z,5.88
2023-09-08T15:07:37.216Z,5.97
2023-09-08T15:12:42.206Z,5.75
2023-09-08T15:17:45.767Z,5.40
2023-09-08T15:22:49.860Z,5.95
2023-09-08T15:27:55.135Z,5.50
2023-09-08T15:32:58.778Z,6.68
2023-09-08T15:38:02.942Z,5.95
2023-09-08T15:43:07.907Z,6.47
2023-09-08T15:48:11.706Z,5.15
2023-09-08T15:53:15.306Z,5.88
2023-09-08T15:58:20.186Z,6.15
2023-09-08T16:03:23.932Z,6.20
2023-09-08T16:08:27.779Z,6.10
2023-09-08T16:13:34.369Z,6.03
2023-09-08T16:18:38.243Z,6.30
2023-09-08T16:23:41.797Z,5.70
2023-09-08T16:28:46.867Z,5.72
2023-09-08T16:33:50.624Z,6.32
2023-09-08T16:38:54.234Z,6.25
2023-09-08T16:43:59.104Z,6.60
2023-09-08T16:49:02.669Z,6.97
2023-09-08T16:54:06.590Z,7.07
2023-09-08T16:59:11.604Z,8.32
2023-09-08T17:04:15.318Z,7.40
2023-09-08T17:09:19.399Z,6.80
2023-09-08T17:14:24.770Z,6.30
2023-09-08T17:19:28.347Z,7.28
2023-09-08T17:24:31.980Z,7.38
2023-09-08T17:29:36.925Z,7.22
2023-09-08T17:34:40.454Z,7.70
2023-09-08T17:39:44.032Z,7.82
2023-09-08T17:44:48.885Z,7.80
2023-09-08T17:49:52.475Z,8.15
2023-09-08T17:54:57.718Z,8.43
2023-09-08T18:00:02.921Z,8.55
2023-09-08T18:05:08.629Z,8.95
2023-09-08T18:10:14.248Z,8.40
2023-09-08T18:15:19.440Z,8.20
2023-09-08T18:20:23.025Z,9.30
2023-09-08T18:25:26.577Z,8.77
2023-09-08T18:30:33.066Z,8.52
2023-09-08T18:35:36.707Z,8.13
2023-09-08T18:40:45.619Z,8.07
2023-09-08T18:45:50.724Z,10.70
2023-09-08T18:50:54.293Z,9.35
2023-09-08T18:55:57.916Z,9.73
2023-09-08T19:01:05.668Z,9.63
2023-09-08T19:06:10.966Z,10.13
2023-09-08T19:11:14.608Z,9.52
2023-09-08T19:16:19.528Z,10.02
2023-09-08T19:21:23.188Z,9.75
2023-09-08T19:26:26.833Z,10.55
2023-09-08T19:31:31.810Z,10.60
2023-09-08T19:36:35.448Z,11.25
2023-09-08T19:41:38.970Z,11.20
2023-09-08T19:46:44.146Z,9.35
2023-09-08T19:51:47.890Z,11.48
2023-09-08T19:56:51.486Z,10.57
2023-09-08T20:01:56.524Z,11.63
2023-09-08T20:07:00.011Z,12.05
2023-09-08T20:12:04.188Z,14.10
2023-09-08T20:17:10.657Z,14.40
2023-09-08T20:22:14.298Z,12.48
2023-09-08T20:27:17.878Z,12.23
2023-09-08T20:32:22.769Z,13.80
2023-09-08T20:37:26.337Z,13.88
2023-09-08T20:42:29.944Z,14.85
2023-09-08T20:47:34.881Z,15.25
2023-09-08T20:52:38.572Z,14.68
2023-09-08T20:57:42.136Z,14.18
2023-09-08T21:02:48.005Z,15.85
2023-09-08T21:07:51.731Z,18.90
2023-09-08T21:12:55.263Z,17.60
2023-09-08T21:18:00.287Z,16.30
2023-09-08T21:23:04.319Z,15.43
2023-09-08T21:28:08.078Z,15.75
2023-09-08T21:33:13.430Z,18.88
2023-09-08T21:38:17.439Z,16.85
2023-09-08T21:43:21.105Z,17.23
2023-09-08T21:48:26.053Z,17.40
2023-09-08T21:53:29.680Z,15.48
2023-09-08T21:58:33.215Z,17.55
2023-09-08T22:03:38.617Z,18.65
2023-09-08T22:08:42.641Z,17.02
2023-09-08T22:13:46.433Z,18.65
2023-09-08T22:18:51.436Z,17.48
2023-09-08T22:23:54.955Z,21.48
2023-09-08T22:28:58.586Z,19.08
2023-09-08T22:34:04.367Z,19.73
2023-09-08T22:39:09.858Z,20.17
2023-09-08T22:44:13.818Z,21.25
2023-09-08T22:49:18.723Z,22.02
2023-09-08T22:54:22.371Z,26.38
2023-09-08T22:59:26.160Z,26.83
2023-09-08T23:04:32.201Z,20.17
2023-09-08T23:09:35.745Z,28.60
2023-09-08T23:14:52.383Z,26.23
2023-09-08T23:20:00.918Z,23.10
2023-09-08T23:25:07.057Z,24.42
2023-09-08T23:30:11.655Z,24.85
2023-09-08T23:35:16.846Z,25.80
2023-09-08T23:40:21.892Z,21.58
2023-09-08T23:45:25.556Z,23.02
2023-09-08T23:50:51.712Z,20.80
2023-09-08T23:55:55.606Z,23.52
